createdAt,value
2023-01-10T00:02:20.332Z,3.30
2023-01-10T00:04:48.408Z,3.40
2023-01-10T00:07:16.688Z,2.90
2023-01-10T00:09:44.751Z,3.00
2023-01-10T00:12:30.240Z,3.10
2023-01-10T00:14:58.433Z,2.87
2023-01-10T00:17:27.886Z,3.63
2023-01-10T00:19:55.948Z,2.97
2023-01-10T00:22:25.240Z,3.23
2023-01-10T00:24:53.944Z,3.00
2023-01-10T00:27:23.714Z,2.67
2023-01-10T00:29:53.171Z,3.17
2023-01-10T00:32:21.926Z,2.87
2023-01-10T00:34:51.422Z,2.77
2023-01-10T00:37:19.752Z,3.20
2023-01-10T00:39:47.931Z,3.20
2023-01-10T00:42:33.400Z,3.23
2023-01-10T00:45:01.503Z,3.50
2023-01-10T00:47:29.561Z,3.20
2023-01-10T00:49:58.991Z,3.10
2023-01-10T00:52:27.063Z,3.00
2023-01-10T00:54:55.110Z,3.37
2023-01-10T00:57:23.250Z,2.90
2023-01-10T00:59:51.258Z,3.00
2023-01-10T01:02:19.491Z,2.90
2023-01-10T01:04:47.703Z,2.87
2023-01-10T01:07:17.210Z,3.40
2023-01-10T01:09:59.091Z,3.37
2023-01-10T01:12:27.144Z,2.77
2023-01-10T01:14:55.127Z,3.33
2023-01-10T01:17:23.311Z,3.13
2023-01-10T01:19:51.270Z,3.63
2023-01-10T01:22:20.881Z,3.37
2023-01-10T01:24:48.964Z,3.00
2023-01-10T01:27:17.257Z,3.23
2023-01-10T01:29:45.258Z,3.50
2023-01-10T01:32:13.373Z,3.30
2023-01-10T01:34:41.572Z,3.60
2023-01-10T01:37:09.964Z,3.00
2023-01-10T01:39:39.598Z,3.10
2023-01-10T01:42:07.923Z,3.70
2023-01-10T01:44:39.387Z,3.63
2023-01-10T01:47:08.549Z,3.17
2023-01-10T01:49:39.781Z,3.73
2023-01-10T01:52:11.498Z,3.47
2023-01-10T01:54:41.062Z,4.17
2023-01-10T01:57:13.338Z,3.23
2023-01-10T01:59:43.445Z,3.67
2023-01-10T02:02:15.336Z,4.07
2023-01-10T02:04:47.121Z,4.20
2023-01-10T02:07:15.202Z,4.40
2023-01-10T02:09:47.493Z,4.30
2023-01-10T02:12:16.084Z,4.50
2023-01-10T02:14:44.673Z,4.23
2023-01-10T02:17:13.397Z,4.17
2023-01-10T02:19:51.564Z,4.47
2023-01-10T02:23:00.767Z,3.80
2023-01-10T02:26:24.731Z,4.57
2023-01-10T02:29:17.108Z,4.50
2023-01-10T02:32:12.755Z,4.10
2023-01-10T02:34:50.586Z,4.87
2023-01-10T02:37:22.963Z,4.67
2023-01-10T02:39:57.282Z,3.87
2023-01-10T02:42:32.841Z,3.73
2023-01-10T02:45:05.066Z,4.43
2023-01-10T02:47:38.575Z,3.70
2023-01-10T02:50:32.982Z,3.57
2023-01-10T02:53:04.938Z,4.40
2023-01-10T02:55:43.162Z,3.73
2023-01-10T02:58:21.127Z,3.70
2023-01-10T03:00:54.784Z,3.97
2023-01-10T03:03:34.981Z,3.57
2023-01-10T03:06:11.633Z,4.57
2023-01-10T03:08:44.881Z,3.80
2023-01-10T03:11:13.337Z,4.30
2023-01-10T03:13:45.681Z,4.13
2023-01-10T03:16:16.755Z,3.60
2023-01-10T03:18:48.983Z,3.57
2023-01-10T03:21:18.022Z,3.93
2023-01-10T03:23:47.177Z,4.33
2023-01-10T03:26:16.692Z,3.63
2023-01-10T03:28:48.523Z,3.97
2023-01-10T03:31:19.680Z,3.53
2023-01-10T03:33:49.940Z,4.40
2023-01-10T03:36:26.977Z,3.60
2023-01-10T03:38:57.538Z,4.63
2023-01-10T03:41:34.383Z,3.47
2023-01-10T03:44:26.421Z,3.67
2023-01-10T03:46:58.399Z,3.60
2023-01-10T03:49:28.906Z,3.73
2023-01-10T03:51:58.775Z,3.93
2023-01-10T03:54:26.927Z,3.73
2023-01-10T03:56:54.987Z,3.37
2023-01-10T03:59:24.594Z,3.70
2023-01-10T04:01:53.201Z,3.97
2023-01-10T04:04:21.472Z,4.07
2023-01-10T04:06:51.148Z,3.87
2023-01-10T04:09:19.197Z,3.60
2023-01-10T04:11:47.337Z,5.27
2023-01-10T04:14:15.426Z,3.73
2023-01-10T04:16:43.453Z,3.93
2023-01-10T04:19:11.615Z,4.00
2023-01-10T04:21:39.666Z,3.43
2023-01-10T04:24:09.506Z,4.30
2023-01-10T04:26:37.682Z,4.27
2023-01-10T04:29:07.196Z,4.67
2023-01-10T04:31:35.341Z,3.90
2023-01-10T04:34:03.459Z,3.97
2023-01-10T04:36:31.697Z,3.80
2023-01-10T04:38:59.959Z,4.07
2023-01-10T04:41:29.442Z,3.33
2023-01-10T04:43:57.611Z,4.03
2023-01-10T04:46:25.785Z,4.10
2023-01-10T04:48:53.833Z,3.63
2023-01-10T04:51:21.982Z,4.00
2023-01-10T04:53:49.951Z,3.47
2023-01-10T04:56:19.596Z,3.97
2023-01-10T04:58:52.371Z,4.00
2023-01-10T05:01:24.764Z,3.70
2023-01-10T05:03:54.301Z,3.87
2023-01-10T05:06:23.400Z,3.93
2023-01-10T05:08:51.544Z,3.47
2023-01-10T05:11:19.684Z,3.90
2023-01-10T05:13:49.177Z,3.53
2023-01-10T05:16:17.417Z,4.40
2023-01-10T05:18:45.772Z,3.70
2023-01-10T05:21:14.815Z,3.97
2023-01-10T05:23:42.950Z,3.77
2023-01-10T05:26:12.793Z,3.73
2023-01-10T05:28:41.698Z,3.40
2023-01-10T05:31:13.208Z,3.23
2023-01-10T05:33:41.322Z,3.53
2023-01-10T05:36:09.798Z,3.83
2023-01-10T05:38:37.830Z,3.50
2023-01-10T05:41:06.565Z,3.40
2023-01-10T05:43:34.629Z,3.17
2023-01-10T05:46:02.843Z,3.10
2023-01-10T05:48:32.330Z,3.73
2023-01-10T05:51:00.387Z,2.87
2023-01-10T05:53:28.600Z,3.30
2023-01-10T05:55:57.725Z,3.50
2023-01-10T05:58:26.611Z,3.50
2023-01-10T06:00:56.132Z,3.43
2023-01-10T06:03:26.547Z,3.47
2023-01-10T06:05:56.182Z,4.17
2023-01-10T06:08:25.140Z,3.47
2023-01-10T06:10:53.194Z,3.60
2023-01-10T06:13:21.597Z,3.70
2023-01-10T06:15:49.866Z,4.03
2023-01-10T06:18:18.314Z,3.67
2023-01-10T06:20:46.408Z,4.00
2023-01-10T06:23:16.042Z,3.70
2023-01-10T06:25:44.216Z,3.80
2023-01-10T06:28:13.912Z,3.50
2023-01-10T06:30:43.269Z,3.83
2023-01-10T06:33:12.235Z,3.83
2023-01-10T06:35:40.410Z,4.10
2023-01-10T06:38:08.538Z,3.53
2023-01-10T06:40:37.962Z,3.90
2023-01-10T06:43:06.227Z,3.47
2023-01-10T06:45:34.489Z,3.30
2023-01-10T06:48:02.495Z,3.87
2023-01-10T06:50:31.757Z,3.83
2023-01-10T06:53:00.531Z,3.57
2023-01-10T06:55:29.106Z,3.50
2023-01-10T06:57:59.273Z,4.10
2023-01-10T07:00:29.026Z,4.23
2023-01-10T07:02:59.340Z,3.70
2023-01-10T07:05:27.389Z,3.83
2023-01-10T07:07:55.393Z,4.00
2023-01-10T07:10:23.405Z,4.37
2023-01-10T07:12:51.340Z,4.10
2023-01-10T07:15:28.680Z,5.07
2023-01-10T07:17:58.272Z,3.97
2023-01-10T07:20:31.051Z,3.73
2023-01-10T07:23:01.799Z,4.33
2023-01-10T07:25:30.654Z,4.23
2023-01-10T07:27:58.868Z,4.13
2023-01-10T07:30:28.691Z,3.97
2023-01-10T07:32:57.338Z,4.43
2023-01-10T07:35:26.147Z,4.40
2023-01-10T07:38:00.552Z,4.70
2023-01-10T07:40:28.622Z,3.47
2023-01-10T07:43:00.338Z,3.47
2023-01-10T07:45:31.095Z,3.33
2023-01-10T07:47:59.267Z,4.97
2023-01-10T07:50:28.858Z,3.70
2023-01-10T07:52:57.022Z,3.60
2023-01-10T07:55:25.047Z,4.00
2023-01-10T07:57:53.118Z,3.60
2023-01-10T08:00:24.121Z,3.60
2023-01-10T08:02:56.169Z,4.17
2023-01-10T08:05:27.301Z,4.03
2023-01-10T08:07:56.273Z,3.67
2023-01-10T08:10:25.923Z,4.33
2023-01-10T08:12:54.052Z,4.53
2023-01-10T08:15:22.656Z,3.57
2023-01-10T08:17:50.826Z,3.70
2023-01-10T08:20:21.980Z,3.77
2023-01-10T08:22:50.461Z,3.80
2023-01-10T08:25:24.023Z,4.43
2023-01-10T08:27:55.538Z,5.07
2023-01-10T08:30:23.860Z,6.40
2023-01-10T08:32:52.312Z,5.17
2023-01-10T08:35:21.692Z,6.23
2023-01-10T08:37:49.678Z,4.80
2023-01-10T08:40:17.808Z,4.40
2023-01-10T08:42:48.623Z,4.80
2023-01-10T08:45:17.192Z,3.93
2023-01-10T08:47:45.205Z,4.50
2023-01-10T08:50:26.777Z,4.87
2023-01-10T08:53:00.229Z,3.60
2023-01-10T08:55:31.424Z,4.57
2023-01-10T08:58:00.896Z,4.47
2023-01-10T09:00:29.419Z,4.67
2023-01-10T09:02:57.692Z,4.63
2023-01-10T09:05:27.973Z,4.23
2023-01-10T09:08:01.497Z,4.17
2023-01-10T09:10:30.018Z,4.23
2023-01-10T09:12:59.998Z,4.60
2023-01-10T09:15:29.998Z,4.40
2023-01-10T09:17:58.799Z,4.87
2023-01-10T09:20:27.680Z,4.50
2023-01-10T09:22:56.802Z,3.90
2023-01-10T09:25:26.459Z,4.20
2023-01-10T09:27:59.187Z,4.27
2023-01-10T09:30:27.878Z,4.43
2023-01-10T09:32:56.614Z,3.50
2023-01-10T09:35:25.666Z,3.87
2023-01-10T09:37:55.388Z,3.73
2023-01-10T09:40:34.785Z,3.73
2023-01-10T09:43:09.545Z,4.27
2023-01-10T09:45:40.814Z,3.77
2023-01-10T09:48:12.163Z,4.17
2023-01-10T09:50:46.019Z,4.10
2023-01-10T09:53:15.556Z,3.53
2023-01-10T09:55:46.937Z,4.07
2023-01-10T09:58:17.271Z,3.60
2023-01-10T10:00:46.776Z,4.27
2023-01-10T10:03:20.842Z,3.77
2023-01-10T10:05:50.567Z,4.07
2023-01-10T10:08:20.843Z,4.00
2023-01-10T10:11:03.512Z,3.67
2023-01-10T10:13:41.661Z,3.90
2023-01-10T10:16:15.484Z,3.80
2023-01-10T10:18:49.611Z,4.03
2023-01-10T10:21:22.279Z,4.17
2023-01-10T10:24:00.885Z,4.77
2023-01-10T10:26:34.819Z,3.47
2023-01-10T10:29:13.175Z,3.80
2023-01-10T10:31:54.668Z,3.60
2023-01-10T10:34:26.788Z,3.80
2023-01-10T10:36:57.330Z,4.07
2023-01-10T10:39:30.879Z,3.83
2023-01-10T10:42:00.352Z,3.97
2023-01-10T10:44:39.912Z,3.97
2023-01-10T10:47:14.994Z,3.57
2023-01-10T10:49:46.258Z,3.10
2023-01-10T10:52:21.019Z,4.40
2023-01-10T10:54:49.029Z,3.50
2023-01-10T10:57:18.804Z,3.93
2023-01-10T10:59:49.465Z,4.00
2023-01-10T11:02:24.164Z,4.03
2023-01-10T11:04:53.889Z,3.73
2023-01-10T11:07:22.193Z,3.30
2023-01-10T11:09:53.124Z,3.37
2023-01-10T11:12:28.705Z,3.17
2023-01-10T11:14:56.719Z,3.73
2023-01-10T11:17:26.597Z,3.80
2023-01-10T11:20:00.395Z,4.43
2023-01-10T11:22:30.646Z,3.80
2023-01-10T11:25:00.921Z,3.73
2023-01-10T11:27:32.144Z,4.00
2023-01-10T11:30:01.769Z,3.17
2023-01-10T11:32:36.799Z,3.00
2023-01-10T11:35:08.360Z,3.30
2023-01-10T11:37:37.375Z,3.33
2023-01-10T11:40:23.216Z,3.53
2023-01-10T11:42:54.636Z,3.10
2023-01-10T11:45:31.803Z,3.07
2023-01-10T11:48:07.130Z,3.53
2023-01-10T11:50:36.883Z,2.90
2023-01-10T11:53:06.017Z,3.43
2023-01-10T11:55:36.281Z,3.73
2023-01-10T11:58:07.930Z,3.50
2023-01-10T12:00:39.558Z,3.40
2023-01-10T12:03:19.353Z,3.87
2023-01-10T12:05:54.570Z,3.10
2023-01-10T12:08:28.695Z,3.20
2023-01-10T12:11:05.833Z,3.10
2023-01-10T12:13:56.580Z,3.20
2023-01-10T12:16:29.499Z,3.00
2023-01-10T12:19:00.613Z,3.20
2023-01-10T12:21:32.907Z,3.60
2023-01-10T12:24:21.264Z,3.23
2023-01-10T12:26:51.048Z,3.03
2023-01-10T12:29:26.826Z,2.77
2023-01-10T12:31:56.169Z,3.33
2023-01-10T12:34:27.495Z,3.77
2023-01-10T12:37:00.785Z,3.40
2023-01-10T12:39:33.431Z,3.47
2023-01-10T12:42:29.514Z,3.20
2023-01-10T12:45:04.573Z,4.00
2023-01-10T12:47:36.621Z,2.73
2023-01-10T12:50:10.516Z,3.37
2023-01-10T12:52:45.963Z,3.50
2023-01-10T12:55:16.324Z,3.53
2023-01-10T12:57:51.612Z,3.30
2023-01-10T13:00:24.963Z,2.80
2023-01-10T13:02:56.287Z,3.57
2023-01-10T13:05:28.100Z,2.97
2023-01-10T13:08:01.625Z,3.23
2023-01-10T13:10:30.214Z,3.50
2023-01-10T13:13:01.268Z,2.97
2023-01-10T13:15:33.060Z,3.53
2023-01-10T13:18:04.249Z,3.50
2023-01-10T13:20:41.984Z,3.43
2023-01-10T13:23:30.339Z,3.03
2023-01-10T13:26:01.989Z,3.33
2023-01-10T13:28:32.348Z,3.00
2023-01-10T13:31:03.471Z,3.60
2023-01-10T13:33:33.086Z,3.13
2023-01-10T13:36:10.927Z,2.80
2023-01-10T13:38:45.991Z,3.90
2023-01-10T13:41:35.606Z,3.33
2023-01-10T13:44:09.944Z,3.30
2023-01-10T13:46:54.254Z,3.63
2023-01-10T13:49:49.612Z,3.43
2023-01-10T13:52:38.747Z,3.67
2023-01-10T13:55:34.180Z,3.17
2023-01-10T13:58:05.074Z,3.63
2023-01-10T14:01:06.207Z,3.20
2023-01-10T14:03:43.583Z,3.87
2023-01-10T14:06:19.692Z,3.20
2023-01-10T14:08:53.454Z,3.53
2023-01-10T14:11:23.153Z,3.37
2023-01-10T14:13:55.042Z,3.53
2023-01-10T14:16:32.079Z,3.70
2023-01-10T14:19:04.050Z,3.27
2023-01-10T14:21:35.812Z,3.13
2023-01-10T14:24:05.203Z,3.67
2023-01-10T14:26:36.074Z,3.27
2023-01-10T14:29:09.070Z,3.17
2023-01-10T14:31:38.943Z,3.40
2023-01-10T14:34:12.179Z,3.50
2023-01-10T14:36:46.513Z,3.37
2023-01-10T14:39:16.039Z,3.30
2023-01-10T14:41:46.723Z,3.13
2023-01-10T14:44:17.464Z,3.70
2023-01-10T14:46:47.627Z,3.73
2023-01-10T14:49:26.724Z,3.03
2023-01-10T14:52:00.961Z,3.57
2023-01-10T14:54:30.386Z,3.30
2023-01-10T14:56:58.804Z,3.20
2023-01-10T14:59:28.039Z,3.63
2023-01-10T15:01:58.810Z,3.37
2023-01-10T15:04:30.433Z,3.97
2023-01-10T15:07:02.713Z,3.30
2023-01-10T15:09:32.023Z,3.97
2023-01-10T15:12:01.585Z,3.60
2023-01-10T15:14:30.899Z,3.13
2023-01-10T15:17:02.424Z,3.20
2023-01-10T15:19:34.737Z,3.43
2023-01-10T15:22:04.325Z,3.73
2023-01-10T15:24:34.286Z,3.60
2023-01-10T15:27:04.603Z,3.10
2023-01-10T15:29:34.057Z,3.17
2023-01-10T15:32:09.033Z,3.50
2023-01-10T15:34:39.878Z,3.20
2023-01-10T15:37:08.892Z,3.47
2023-01-10T15:39:38.732Z,3.23
2023-01-10T15:42:09.885Z,3.77
2023-01-10T15:44:40.882Z,3.63
2023-01-10T15:47:32.571Z,3.53
2023-01-10T15:50:04.862Z,3.20
2023-01-10T15:52:33.183Z,3.77
2023-01-10T15:55:01.632Z,3.80
2023-01-10T15:57:33.785Z,4.17
2023-01-10T16:00:03.009Z,3.47
2023-01-10T16:02:36.077Z,3.00
2023-01-10T16:05:11.444Z,3.90
2023-01-10T16:07:44.865Z,3.60
2023-01-10T16:10:20.357Z,3.70
2023-01-10T16:13:09.237Z,3.47
2023-01-10T16:15:39.242Z,3.63
2023-01-10T16:18:08.387Z,3.13
2023-01-10T16:20:43.271Z,2.97
2023-01-10T16:23:15.969Z,3.37
2023-01-10T16:25:47.279Z,3.43
2023-01-10T16:28:16.833Z,2.80
2023-01-10T16:30:46.861Z,2.87
2023-01-10T16:33:17.707Z,2.70
2023-01-10T16:35:47.776Z,2.87
2023-01-10T16:38:17.701Z,2.57
2023-01-10T16:40:48.800Z,3.00
2023-01-10T16:43:19.209Z,3.13
2023-01-10T16:45:48.890Z,2.53
2023-01-10T16:48:18.190Z,2.70
2023-01-10T16:50:49.147Z,2.53
2023-01-10T16:53:18.655Z,3.10
2023-01-10T16:55:49.200Z,3.10
2023-01-10T16:58:18.240Z,3.27
2023-01-10T17:00:49.221Z,2.63
2023-01-10T17:03:20.015Z,3.33
2023-01-10T17:05:50.065Z,2.77
2023-01-10T17:08:19.338Z,2.30
2023-01-10T17:10:49.048Z,2.30
2023-01-10T17:13:19.502Z,2.40
2023-01-10T17:15:47.975Z,2.50
2023-01-10T17:18:16.039Z,2.00
2023-01-10T17:20:45.408Z,2.53
2023-01-10T17:23:15.723Z,2.33
2023-01-10T17:25:44.693Z,1.80
2023-01-10T17:28:13.641Z,2.00
2023-01-10T17:30:41.897Z,2.60
2023-01-10T17:33:12.312Z,2.93
2023-01-10T17:35:41.466Z,2.23
2023-01-10T17:38:10.916Z,2.50
2023-01-10T17:40:42.523Z,1.87
2023-01-10T17:43:11.657Z,2.63
2023-01-10T17:45:41.035Z,2.30
2023-01-10T17:48:10.041Z,1.93
2023-01-10T17:50:38.385Z,2.40
2023-01-10T17:53:07.186Z,2.03
2023-01-10T17:55:35.550Z,2.20
2023-01-10T17:58:05.031Z,2.17
2023-01-10T18:00:33.637Z,2.60
2023-01-10T18:03:02.306Z,1.90
2023-01-10T18:05:32.271Z,1.93
2023-01-10T18:08:02.065Z,1.60
2023-01-10T18:10:30.493Z,2.10
2023-01-10T18:12:58.810Z,2.27
2023-01-10T18:15:28.344Z,2.10
2023-01-10T18:17:56.491Z,1.80
2023-01-10T18:20:24.656Z,2.10
2023-01-10T18:23:10.400Z,2.10
2023-01-10T18:25:38.612Z,1.70
2023-01-10T18:28:06.990Z,1.67
2023-01-10T18:30:37.192Z,1.70
2023-01-10T18:33:06.306Z,1.47
2023-01-10T18:35:34.513Z,1.80
2023-01-10T18:38:02.612Z,1.67
2023-01-10T18:40:30.953Z,1.87
2023-01-10T18:42:59.456Z,1.50
2023-01-10T18:45:28.016Z,1.60
2023-01-10T18:47:59.458Z,1.60
2023-01-10T18:50:27.831Z,1.57
2023-01-10T18:52:56.268Z,1.63
2023-01-10T18:55:24.509Z,1.50
2023-01-10T18:57:52.780Z,1.60
2023-01-10T19:00:21.525Z,1.73
2023-01-10T19:02:50.095Z,1.50
2023-01-10T19:05:37.455Z,1.37
2023-01-10T19:08:06.291Z,1.40
2023-01-10T19:10:55.043Z,1.40
2023-01-10T19:13:22.844Z,1.40
2023-01-10T19:15:53.313Z,1.33
2023-01-10T19:18:21.506Z,1.60
2023-01-10T19:20:54.725Z,1.20
2023-01-10T19:23:23.034Z,1.00
2023-01-10T19:25:56.928Z,1.40
2023-01-10T19:28:25.688Z,1.23
2023-01-10T19:31:03.676Z,1.23
2023-01-10T19:33:34.577Z,1.10
2023-01-10T19:36:09.022Z,1.13
2023-01-10T19:38:37.773Z,1.37
2023-01-10T19:41:06.773Z,1.47
2023-01-10T19:43:34.972Z,1.20
2023-01-10T19:46:06.966Z,1.40
2023-01-10T19:48:37.913Z,1.30
2023-01-10T19:51:08.749Z,1.30
2023-01-10T19:53:37.600Z,1.40
2023-01-10T19:56:09.816Z,1.17
2023-01-10T19:58:38.998Z,1.17
2023-01-10T20:01:09.275Z,1.10
2023-01-10T20:03:38.064Z,1.10
2023-01-10T20:06:10.061Z,1.07
2023-01-10T20:08:40.433Z,1.10
2023-01-10T20:11:10.304Z,1.20
2023-01-10T20:13:42.019Z,1.50
2023-01-10T20:16:10.629Z,1.00
2023-01-10T20:18:39.657Z,1.20
2023-01-10T20:21:11.222Z,1.10
2023-01-10T20:23:41.110Z,1.40
2023-01-10T20:26:26.891Z,1.00
2023-01-10T20:28:56.491Z,1.00
2023-01-10T20:31:25.785Z,1.10
2023-01-10T20:33:54.124Z,0.80
2023-01-10T20:36:26.128Z,0.97
2023-01-10T20:38:54.485Z,1.20
2023-01-10T20:41:24.831Z,1.00
2023-01-10T20:43:55.308Z,0.97
2023-01-10T20:46:26.409Z,0.70
2023-01-10T20:48:55.824Z,1.00
2023-01-10T20:51:27.801Z,0.90
2023-01-10T20:53:56.911Z,0.90
2023-01-10T20:56:26.833Z,0.90
2023-01-10T20:58:56.159Z,1.00
2023-01-10T21:01:34.043Z,0.83
2023-01-10T21:04:03.941Z,0.90
2023-01-10T21:06:34.017Z,1.20
2023-01-10T21:09:02.834Z,1.20
2023-01-10T21:11:31.371Z,1.00
2023-01-10T21:13:59.717Z,0.90
2023-01-10T21:16:29.002Z,0.80
2023-01-10T21:18:57.484Z,0.93
2023-01-10T21:21:25.908Z,0.83
2023-01-10T21:23:55.996Z,0.77
2023-01-10T21:26:24.384Z,0.80
2023-01-10T21:28:52.896Z,0.80
2023-01-10T21:31:22.452Z,0.90
2023-01-10T21:33:50.970Z,0.80
2023-01-10T21:36:19.852Z,0.90
2023-01-10T21:38:49.663Z,0.90
2023-01-10T21:41:41.386Z,0.80
2023-01-10T21:44:12.636Z,0.80
2023-01-10T21:46:41.315Z,0.60
2023-01-10T21:49:10.701Z,1.00
2023-01-10T21:51:39.218Z,1.00
2023-01-10T21:54:07.920Z,0.60
2023-01-10T21:56:38.626Z,0.77
2023-01-10T21:59:07.185Z,0.90
2023-01-10T22:01:35.735Z,0.60
2023-01-10T22:04:05.377Z,0.80
2023-01-10T22:06:33.715Z,0.80
2023-01-10T22:09:01.891Z,0.90
2023-01-10T22:11:30.372Z,0.60
2023-01-10T22:14:00.083Z,0.80
2023-01-10T22:16:28.285Z,0.70
2023-01-10T22:18:56.554Z,0.77
2023-01-10T22:21:24.788Z,0.83
2023-01-10T22:23:52.906Z,0.60
2023-01-10T22:26:21.079Z,0.80
2023-01-10T22:28:49.277Z,0.80
2023-01-10T22:31:18.728Z,0.80
2023-01-10T22:33:46.903Z,0.83
2023-01-10T22:36:16.462Z,0.90
2023-01-10T22:38:45.552Z,0.90
2023-01-10T22:41:15.607Z,0.90
2023-01-10T22:43:44.475Z,1.13
2023-01-10T22:46:15.541Z,0.87
2023-01-10T22:48:45.584Z,0.80
2023-01-10T22:51:14.059Z,0.90
2023-01-10T22:53:42.560Z,1.00
2023-01-10T22:56:11.953Z,0.97
2023-01-10T22:58:40.140Z,0.70
2023-01-10T23:01:08.558Z,0.83
2023-01-10T23:03:36.736Z,0.83
2023-01-10T23:06:06.390Z,0.90
2023-01-10T23:08:35.063Z,0.60
2023-01-10T23:11:03.453Z,0.90
2023-01-10T23:13:31.635Z,1.00
2023-01-10T23:16:03.822Z,0.90
2023-01-10T23:18:32.290Z,0.77
2023-01-10T23:21:00.760Z,0.70
2023-01-10T23:23:32.297Z,0.80
2023-01-10T23:26:04.561Z,0.87
2023-01-10T23:28:34.689Z,1.00
2023-01-10T23:31:03.103Z,0.80
2023-01-10T23:33:31.289Z,0.80
2023-01-10T23:35:59.702Z,0.70
2023-01-10T23:38:27.953Z,0.60
2023-01-10T23:40:57.495Z,1.10
2023-01-10T23:43:25.803Z,0.80
2023-01-10T23:45:53.983Z,0.90
2023-01-10T23:48:22.335Z,0.90
2023-01-10T23:50:51.313Z,0.80
2023-01-10T23:53:19.761Z,0.80
2023-01-10T23:55:48.096Z,0.90
2023-01-10T23:58:20.630Z,0.83
